Time,TemperatureF,DewpointF,PressureIn,WindDirection,WindDirectionDegrees,WindSpeedMPH,WindSpeedGustMPH,Humidity,HourlyPrecipIn,Conditions,Clouds,dailyrainin,SoftwareType,DateUTC
2013-05-21 00:01:00,68.5,66.7,29.94,South,180,0.0,0.0,94,0.00,,CLR,0.00,VWS V14.00,2013-05-21 04:01:00,
2013-05-21 00:06:00,68.5,66.7,29.94,South,180,0.0,0.0,94,0.00,,CLR,0.00,VWS V14.00,2013-05-21 04:06:00,
2013-05-21 00:11:00,68.4,66.6,29.94,South,180,0.0,0.0,94,0.00,,CLR,0.00,VWS V14.00,2013-05-21 04:11:00,
2013-05-21 00:16:00,68.2,66.4,29.94,South,181,0.0,0.0,94,0.00,,CLR,0.00,VWS V14.00,2013-05-21 04:16:00,
2013-05-21 00:21:00,68.1,66.6,29.94,South,181,0.0,0.0,95,0.00,,CLR,0.00,VWS V14.00,2013-05-21 04:21:00,
2013-05-21 00:26:00,68.0,66.5,29.94,South,181,0.0,0.0,95,0.00,,CLR,0.00,VWS V14.00,2013-05-21 04:26:00,
2013-05-21 00:31:00,67.8,66.0,29.93,South,181,0.0,0.0,94,0.00,,CLR,0.00,VWS V14.00,2013-05-21 04:31:00,
2013-05-21 00:36:00,67.7,66.2,29.93,South,180,0.0,0.0,95,0.00,,CLR,0.00,VWS V14.00,2013-05-21 04:36:00,
2013-05-21 00:41:00,67.7,66.2,29.93,South,180,0.0,1.0,95,0.00,,CLR,0.00,VWS V14.00,2013-05-21 04:41:00,
2013-05-21 00:46:00,67.7,65.9,29.93,South,180,0.0,1.0,94,0.00,,CLR,0.00,VWS V14.00,2013-05-21 04:46:00,
2013-05-21 00:51:00,67.7,65.9,29.93,South,181,0.0,1.0,94,0.00,,CLR,0.00,VWS V14.00,2013-05-21 04:51:00,
2013-05-21 00:56:00,67.5,65.7,29.93,South,181,0.0,1.0,94,0.00,,CLR,0.00,VWS V14.00,2013-05-21 04:56:00,
2013-05-21 01:01:00,67.4,65.9,29.93,South,181,0.0,0.0,95,0.00,,CLR,0.00,VWS V14.00,2013-05-21 05:01:00,
2013-05-21 01:06:00,67.2,65.7,29.93,South,181,0.0,0.0,95,0.00,,CLR,0.00,VWS V14.00,2013-05-21 05:06:00,
2013-05-21 01:11:00,67.1,65.6,29.93,South,181,0.0,0.0,95,0.00,,CLR,0.00,VWS V14.00,2013-05-21 05:11:00,
2013-05-21 01:16:00,67.1,65.6,29.93,South,180,0.0,0.0,95,0.00,,CLR,0.00,VWS V14.00,2013-05-21 05:16:00,
2013-05-21 01:21:00,67.1,65.6,29.93,South,181,0.0,0.0,95,0.00,,CLR,0.00,VWS V14.00,2013-05-21 05:21:00,
2013-05-21 01:26:00,67.2,65.7,29.93,South,180,0.0,0.0,95,0.00,,CLR,0.00,VWS V14.00,2013-05-21 05:26:00,
2013-05-21 01:31:00,67.3,65.8,29.93,South,181,0.0,0.0,95,0.00,,CLR,0.00,VWS V14.00,2013-05-21 05:31:00,
2013-05-21 01:36:00,67.3,65.8,29.93,South,181,0.0,0.0,95,0.00,,CLR,0.00,VWS V14.00,2013-05-21 05:36:00,
2013-05-21 01:41:00,67.3,65.8,29.93,South,181,0.0,0.0,95,0.00,,CLR,0.00,VWS V14.00,2013-05-21 05:41:00,
2013-05-21 01:46:00,67.2,65.7,29.92,South,180,0.0,0.0,95,0.00,,CLR,0.00,VWS V14.00,2013-05-21 05:46:00,
2013-05-21 01:51:00,67.0,65.5,29.92,South,181,0.0,0.0,95,0.00,,CLR,0.00,VWS V14.00,2013-05-21 05:51:00,
2013-05-21 01:56:00,66.4,64.6,29.92,South,181,0.0,0.0,94,0.00,,CLR,0.00,VWS V14.00,2013-05-21 05:56:00,
2013-05-21 02:01:00,66.0,64.5,29.92,South,181,0.0,0.0,95,0.00,,CLR,0.00,VWS V14.00,2013-05-21 06:01:00,
2013-05-21 02:06:00,65.8,64.3,29.92,South,181,0.0,0.0,95,0.00,,CLR,0.00,VWS V14.00,2013-05-21 06:06:00,
2013-05-21 02:11:00,65.6,64.1,29.92,South,180,1.0,1.0,95,0.00,,CLR,0.00,VWS V14.00,2013-05-21 06:11:00,
2013-05-21 02:16:00,65.6,64.1,29.92,South,181,0.0,1.0,95,0.00,,CLR,0.00,VWS V14.00,2013-05-21 06:16:00,
2013-05-21 02:21:00,65.6,64.4,29.92,South,181,0.0,1.0,96,0.00,,CLR,0.00,VWS V14.00,2013-05-21 06:21:00,
2013-05-21 02:26:00,65.6,64.4,29.92,South,181,0.0,1.0,96,0.00,,CLR,0.00,VWS V14.00,2013-05-21 06:26:00,
2013-05-21 02:31:00,65.6,64.4,29.92,South,181,0.0,0.0,96,0.00,,CLR,0.00,VWS V14.00,2013-05-21 06:31:00,
2013-05-21 02:36:00,65.6,64.4,29.92,South,181,0.0,0.0,96,0.00,,CLR,0.00,VWS V14.00,2013-05-21 06:36:00,
2013-05-21 02:41:00,65.6,64.4,29.92,South,181,0.0,0.0,96,0.00,,CLR,0.00,VWS V14.00,2013-05-21 06:41:00,
2013-05-21 02:46:00,65.6,64.4,29.91,South,180,0.0,0.0,96,0.00,,CLR,0.00,VWS V14.00,2013-05-21 06:46:00,
2013-05-21 02:51:00,65.6,64.4,29.91,South,181,0.0,0.0,96,0.00,,CLR,0.00,VWS V14.00,2013-05-21 06:51:00,
2013-05-21 02:56:00,65.6,64.4,29.91,South,181,0.0,0.0,96,0.00,,CLR,0.00,VWS V14.00,2013-05-21 06:56:00,
2013-05-21 03:01:00,65.6,64.4,29.91,South,181,0.0,0.0,96,0.00,,CLR,0.00,VWS V14.00,2013-05-21 07:01:00,
2013-05-21 03:06:00,65.5,64.3,29.91,South,181,0.0,0.0,96,0.00,,CLR,0.00,VWS V14.00,2013-05-21 07:06:00,
2013-05-21 03:11:00,65.4,64.2,29.91,South,181,0.0,0.0,96,0.00,,CLR,0.00,VWS V14.00,2013-05-21 07:11:00,
2013-05-21 03:16:00,65.2,64.0,29.91,South,181,0.0,0.0,96,0.00,,CLR,0.00,VWS V14.00,2013-05-21 07:16:00,
2013-05-21 03:21:00,65.3,64.1,29.91,South,181,0.0,0.0,96,0.00,,CLR,0.00,VWS V14.00,2013-05-21 07:21:00,
2013-05-21 03:26:00,65.2,64.0,29.91,South,180,0.0,0.0,96,0.00,,CLR,0.00,VWS V14.00,2013-05-21 07:26:00,
2013-05-21 03:31:00,65.2,64.0,29.91,South,180,0.0,0.0,96,0.00,,CLR,0.00,VWS V14.00,2013-05-21 07:31:00,
2013-05-21 03:36:00,65.3,64.1,29.91,South,181,0.0,0.0,96,0.00,,CLR,0.00,VWS V14.00,2013-05-21 07:36:00,
2013-05-21 03:41:00,65.0,63.8,29.91,South,181,0.0,0.0,96,0.00,,CLR,0.00,VWS V14.00,2013-05-21 07:41:00,
2013-05-21 03:46:00,64.9,63.7,29.91,South,181,0.0,0.0,96,0.00,,CLR,0.00,VWS V14.00,2013-05-21 07:46:00,
2013-05-21 03:51:00,65.0,63.8,29.91,South,181,0.0,0.0,96,0.00,,CLR,0.00,VWS V14.00,2013-05-21 07:51:00,
2013-05-21 03:56:00,65.0,63.8,29.91,South,181,0.0,0.0,96,0.00,,CLR,0.00,VWS V14.00,2013-05-21 07:56:00,
2013-05-21 04:01:00,65.1,63.9,29.92,South,181,0.0,0.0,96,0.00,,CLR,0.00,VWS V14.00,2013-05-21 08:01:00,
2013-05-21 04:06:00,65.0,63.8,29.92,South,181,0.0,0.0,96,0.00,,CLR,0.00,VWS V14.00,2013-05-21 08:06:00,
2013-05-21 04:11:00,65.0,63.8,29.92,South,180,0.0,0.0,96,0.00,,CLR,0.00,VWS V14.00,2013-05-21 08:11:00,
2013-05-21 04:16:00,64.9,63.7,29.92,South,180,0.0,0.0,96,0.00,,CLR,0.00,VWS V14.00,2013-05-21 08:16:00,
2013-05-21 04:21:00,64.9,63.7,29.92,South,181,0.0,0.0,96,0.00,,CLR,0.00,VWS V14.00,2013-05-21 08:21:00,
2013-05-21 04:26:00,64.8,63.6,29.92,South,181,0.0,0.0,96,0.00,,CLR,0.00,VWS V14.00,2013-05-21 08:26:00,
2013-05-21 04:31:00,64.6,63.4,29.92,South,180,0.0,0.0,96,0.00,,CLR,0.00,VWS V14.00,2013-05-21 08:31:00,
2013-05-21 04:36:00,64.3,63.1,29.92,South,181,0.0,0.0,96,0.00,,CLR,0.00,VWS V14.00,2013-05-21 08:36:00,
2013-05-21 04:41:00,64.0,62.8,29.92,South,181,0.0,0.0,96,0.00,,CLR,0.00,VWS V14.00,2013-05-21 08:41:00,
2013-05-21 04:46:00,63.8,62.6,29.91,South,181,0.0,0.0,96,0.00,,CLR,0.00,VWS V14.00,2013-05-21 08:46:00,
2013-05-21 04:51:00,63.9,62.7,29.91,South,181,0.0,0.0,96,0.00,,CLR,0.00,VWS V14.00,2013-05-21 08:51:00,
2013-05-21 04:56:00,63.8,62.6,29.91,South,181,0.0,0.0,96,0.00,,CLR,0.00,VWS V14.00,2013-05-21 08:56:00,
2013-05-21 05:01:00,63.6,62.4,29.91,South,180,0.0,0.0,96,0.00,,CLR,0.00,VWS V14.00,2013-05-21 09:01:00,
2013-05-21 05:06:00,63.5,62.3,29.91,South,181,0.0,0.0,96,0.00,,CLR,0.00,VWS V14.00,2013-05-21 09:06:00,
2013-05-21 05:11:00,63.6,62.4,29.91,South,181,0.0,0.0,96,0.00,,CLR,0.00,VWS V14.00,2013-05-21 09:11:00,
2013-05-21 05:16:00,64.0,62.8,29.91,South,181,0.0,0.0,96,0.00,,CLR,0.00,VWS V14.00,2013-05-21 09:16:00,
2013-05-21 05:21:00,64.2,63.3,29.91,South,181,0.0,0.0,97,0.00,,CLR,0.00,VWS V14.00,2013-05-21 09:21:00,
2013-05-21 05:26:00,64.3,63.4,29.91,South,181,0.0,0.0,97,0.00,,CLR,0.00,VWS V14.00,2013-05-21 09:26:00,
2013-05-21 05:31:00,64.3,63.4,29.91,South,181,0.0,0.0,97,0.00,,CLR,0.00,VWS V14.00,2013-05-21 09:31:00,
2013-05-21 05:36:00,64.2,63.3,29.91,South,181,0.0,0.0,97,0.00,,CLR,0.00,VWS V14.00,2013-05-21 09:36:00,
2013-05-21 05:41:00,63.9,62.7,29.91,South,180,0.0,0.0,96,0.00,,CLR,0.00,VWS V14.00,2013-05-21 09:41:00,
2013-05-21 05:46:00,63.4,62.2,29.91,South,181,0.0,0.0,96,0.00,,CLR,0.00,VWS V14.00,2013-05-21 09:46:00,
2013-05-21 05:51:00,63.0,61.8,29.91,South,181,0.0,0.0,96,0.00,,CLR,0.00,VWS V14.00,2013-05-21 09:51:00,
2013-05-21 05:56:00,62.9,61.8,29.91,South,180,0.0,0.0,96,0.00,,CLR,0.00,VWS V14.00,2013-05-21 09:56:00,
2013-05-21 06:01:00,62.9,61.8,29.92,South,180,0.0,0.0,96,0.00,,CLR,0.00,VWS V14.00,2013-05-21 10:01:00,
2013-05-21 06:06:00,63.3,62.4,29.92,South,181,0.0,0.0,97,0.00,,CLR,0.00,VWS V14.00,2013-05-21 10:06:00,
2013-05-21 06:11:00,63.6,62.7,29.92,South,181,0.0,0.0,97,0.00,,CLR,0.00,VWS V14.00,2013-05-21 10:11:00,
2013-05-21 06:16:00,63.7,62.8,29.92,South,180,0.0,0.0,97,0.00,,CLR,0.00,VWS V14.00,2013-05-21 10:16:00,
2013-05-21 06:21:00,63.8,62.9,29.92,South,181,0.0,0.0,97,0.00,,CLR,0.00,VWS V14.00,2013-05-21 10:21:00,
2013-05-21 06:26:00,63.6,62.7,29.92,South,181,0.0,0.0,97,0.00,,CLR,0.00,VWS V14.00,2013-05-21 10:26:00,
2013-05-21 06:31:00,63.6,62.7,29.93,South,181,0.0,0.0,97,0.00,,CLR,0.00,VWS V14.00,2013-05-21 10:31:00,
2013-05-21 06:36:00,63.8,62.9,29.93,South,180,0.0,0.0,97,0.00,,CLR,0.00,VWS V14.00,2013-05-21 10:36:00,
2013-05-21 06:41:00,63.8,62.9,29.93,South,181,0.0,0.0,97,0.00,,CLR,0.00,VWS V14.00,2013-05-21 10:41:00,
2013-05-21 06:46:00,63.5,62.6,29.93,South,180,0.0,0.0,97,0.00,,CLR,0.00,VWS V14.00,2013-05-21 10:46:00,
2013-05-21 06:51:00,63.3,62.4,29.93,South,180,0.0,0.0,97,0.00,,CLR,0.00,VWS V14.00,2013-05-21 10:51:00,
2013-05-21 06:56:00,63.3,62.4,29.93,South,181,0.0,0.0,97,0.00,,CLR,0.00,VWS V14.00,2013-05-21 10:56:00,
2013-05-21 07:01:00,63.1,62.2,29.93,South,181,0.0,0.0,97,0.00,,CLR,0.00,VWS V14.00,2013-05-21 11:01:00,
2013-05-21 07:06:00,62.9,62.0,29.93,South,180,0.0,0.0,97,0.00,,CLR,0.00,VWS V14.00,2013-05-21 11:06:00,
2013-05-21 07:11:00,63.1,62.2,29.93,South,181,0.0,1.0,97,0.00,,CLR,0.00,VWS V14.00,2013-05-21 11:11:00,
2013-05-21 07:16:00,62.5,61.3,29.94,South,181,0.0,2.0,96,0.00,,CLR,0.00,VWS V14.00,2013-05-21 11:16:00,
2013-05-21 07:21:00,62.3,61.4,29.94,South,183,0.0,2.0,97,0.00,,CLR,0.00,VWS V14.00,2013-05-21 11:21:00,
2013-05-21 07:26:00,62.5,61.6,29.94,NNW,329,0.0,2.0,97,0.00,,CLR,0.00,VWS V14.00,2013-05-21 11:26:00,
2013-05-21 07:31:00,62.8,61.9,29.94,NNW,329,0.0,1.0,97,0.00,,CLR,0.00,VWS V14.00,2013-05-21 11:31:00,
2013-05-21 07:36:00,63.2,62.3,29.94,NNW,330,0.0,1.0,97,0.00,,CLR,0.00,VWS V14.00,2013-05-21 11:36:00,
2013-05-21 07:41:00,63.4,62.5,29.94,NNW,330,0.0,1.0,97,0.00,,CLR,0.00,VWS V14.00,2013-05-21 11:41:00,
2013-05-21 07:46:00,63.5,62.6,29.95,NNW,330,0.0,1.0,97,0.00,,CLR,0.00,VWS V14.00,2013-05-21 11:46:00,
2013-05-21 07:51:00,63.7,62.8,29.95,NNW,329,0.0,1.0,97,0.00,,CLR,0.00,VWS V14.00,2013-05-21 11:51:00,
2013-05-21 07:56:00,63.9,63.0,29.95,NNW,329,0.0,1.0,97,0.00,,CLR,0.00,VWS V14.00,2013-05-21 11:56:00,
2013-05-21 08:01:00,64.3,63.4,29.95,NNW,333,0.0,1.0,97,0.00,,CLR,0.00,VWS V14.00,2013-05-21 12:01:00,
2013-05-21 08:06:00,64.7,63.8,29.95,West,275,0.0,1.0,97,0.00,,CLR,0.00,VWS V14.00,2013-05-21 12:06:00,
2013-05-21 08:11:00,64.9,64.0,29.95,West,276,0.0,1.0,97,0.00,,CLR,0.00,VWS V14.00,2013-05-21 12:11:00,
2013-05-21 08:16:00,65.2,64.3,29.95,WNW,289,0.0,1.0,97,0.00,,CLR,0.00,VWS V14.00,2013-05-21 12:16:00,
2013-05-21 08:21:00,65.5,64.6,29.95,WNW,288,0.0,1.0,97,0.00,,CLR,0.00,VWS V14.00,2013-05-21 12:21:00,
2013-05-21 08:26:00,65.8,64.9,29.95,WNW,289,0.0,1.0,97,0.00,,CLR,0.00,VWS V14.00,2013-05-21 12:26:00,
2013-05-21 08:31:00,66.2,65.3,29.96,WNW,289,0.0,0.0,97,0.00,,CLR,0.00,VWS V14.00,2013-05-21 12:31:00,
2013-05-21 08:36:00,66.5,65.6,29.96,WNW,290,0.0,0.0,97,0.00,,CLR,0.00,VWS V14.00,2013-05-21 12:36:00,
2013-05-21 08:41:00,66.7,65.8,29.96,WNW,300,0.0,0.0,97,0.00,,CLR,0.00,VWS V14.00,2013-05-21 12:41:00,
2013-05-21 08:46:00,67.0,66.1,29.96,NW,312,0.0,0.0,97,0.00,,CLR,0.00,VWS V14.00,2013-05-21 12:46:00,
2013-05-21 08:51:00,67.1,66.2,29.96,NW,312,0.0,0.0,97,0.00,,CLR,0.00,VWS V14.00,2013-05-21 12:51:00,
2013-05-21 08:56:00,67.2,66.3,29.96,NW,312,0.0,1.0,97,0.00,,CLR,0.00,VWS V14.00,2013-05-21 12:56:00,
2013-05-21 09:01:00,67.4,66.5,29.97,NW,314,0.0,0.0,97,0.00,,CLR,0.00,VWS V14.00,2013-05-21 13:01:00,
2013-05-21 09:06:00,67.6,66.7,29.97,NW,316,0.0,0.0,97,0.00,,CLR,0.00,VWS V14.00,2013-05-21 13:06:00,
2013-05-21 09:11:00,67.8,66.9,29.97,NW,316,0.0,0.0,97,0.00,,CLR,0.00,VWS V14.00,2013-05-21 13:11:00,
2013-05-21 09:16:00,68.3,67.4,29.96,NW,316,0.0,0.0,97,0.00,,CLR,0.00,VWS V14.00,2013-05-21 13:16:00,
2013-05-21 09:21:00,68.7,67.8,29.96,NW,319,0.0,1.0,97,0.00,,CLR,0.00,VWS V14.00,2013-05-21 13:21:00,
2013-05-21 09:26:00,69.0,68.1,29.96,WNW,296,0.0,1.0,97,0.00,,CLR,0.00,VWS V14.00,2013-05-21 13:26:00,
2013-05-21 09:31:00,69.3,68.4,29.96,West,273,0.0,1.0,97,0.00,,CLR,0.00,VWS V14.00,2013-05-21 13:31:00,
2013-05-21 09:36:00,69.5,68.3,29.96,SSW,211,0.0,4.0,96,0.00,,CLR,0.00,VWS V14.00,2013-05-21 13:36:00,
2013-05-21 09:41:00,70.1,68.9,29.96,SSW,211,0.0,4.0,96,0.00,,CLR,0.00,VWS V14.00,2013-05-21 13:41:00,
2013-05-21 09:46:00,70.7,69.5,29.96,SSW,211,0.0,4.0,96,0.00,,CLR,0.00,VWS V14.00,2013-05-21 13:46:00,
2013-05-21 09:51:00,71.3,69.8,29.96,SSW,211,0.0,4.0,95,0.00,,CLR,0.00,VWS V14.00,2013-05-21 13:51:00,
2013-05-21 09:56:00,71.8,70.0,29.96,SSW,211,0.0,4.0,94,0.00,,CLR,0.00,VWS V14.00,2013-05-21 13:56:00,
2013-05-21 10:01:00,72.4,70.6,29.96,SSW,211,0.0,2.0,94,0.00,,CLR,0.00,VWS V14.00,2013-05-21 14:01:00,
2013-05-21 10:06:00,73.0,71.2,29.96,SSW,212,0.0,2.0,94,0.00,,CLR,0.00,VWS V14.00,2013-05-21 14:06:00,
2013-05-21 10:11:00,73.7,71.2,29.96,SSW,212,0.0,2.0,92,0.00,,CLR,0.00,VWS V14.00,2013-05-21 14:11:00,
2013-05-21 10:16:00,74.7,72.2,29.96,South,191,0.0,2.0,92,0.00,,CLR,0.00,VWS V14.00,2013-05-21 14:16:00,
2013-05-21 10:21:00,75.1,72.0,29.96,South,191,0.0,2.0,90,0.00,,CLR,0.00,VWS V14.00,2013-05-21 14:21:00,
2013-05-21 10:26:00,75.4,71.9,29.96,South,191,0.0,2.0,89,0.00,,CLR,0.00,VWS V14.00,2013-05-21 14:26:00,
2013-05-21 10:31:00,76.0,72.2,29.96,South,186,0.0,3.0,88,0.00,,CLR,0.00,VWS V14.00,2013-05-21 14:31:00,
2013-05-21 10:36:00,76.3,72.2,29.96,SW,229,0.0,3.0,87,0.00,,CLR,0.00,VWS V14.00,2013-05-21 14:36:00,
2013-05-21 10:41:00,76.4,72.2,29.96,SW,231,0.0,4.0,87,0.00,,CLR,0.00,VWS V14.00,2013-05-21 14:41:00,
2013-05-21 10:46:00,76.6,72.1,29.96,SW,231,0.0,4.0,86,0.00,,CLR,0.00,VWS V14.00,2013-05-21 14:46:00,
2013-05-21 10:51:00,77.0,72.2,29.96,SW,231,0.0,4.0,85,0.00,,CLR,0.00,VWS V14.00,2013-05-21 14:51:00,
2013-05-21 10:56:00,77.5,72.6,29.96,SW,231,0.0,4.0,85,0.00,,CLR,0.00,VWS V14.00,2013-05-21 14:56:00,
2013-05-21 11:01:00,77.8,72.6,29.96,SW,231,0.0,0.0,84,0.00,,CLR,0.00,VWS V14.00,2013-05-21 15:01:00,
2013-05-21 11:06:00,78.6,73.7,29.96,SW,231,0.0,1.0,85,0.00,,CLR,0.00,VWS V14.00,2013-05-21 15:06:00,
2013-05-21 11:11:00,79.0,72.7,29.96,SW,231,2.0,3.0,81,0.00,,CLR,0.00,VWS V14.00,2013-05-21 15:11:00,
2013-05-21 11:16:00,78.9,73.3,29.96,SW,230,0.0,5.0,83,0.00,,CLR,0.00,VWS V14.00,2013-05-21 15:16:00,
2013-05-21 11:21:00,79.2,73.2,29.96,SW,230,0.0,5.0,82,0.00,,CLR,0.00,VWS V14.00,2013-05-21 15:21:00,
2013-05-21 11:26:00,79.7,73.0,29.96,SW,230,0.0,5.0,80,0.00,,CLR,0.00,VWS V14.00,2013-05-21 15:26:00,
2013-05-21 11:31:00,80.2,73.1,29.96,SW,229,0.0,2.0,79,0.00,,CLR,0.00,VWS V14.00,2013-05-21 15:31:00,
2013-05-21 11:36:00,80.7,73.6,29.96,SW,230,0.0,2.0,79,0.00,,CLR,0.00,VWS V14.00,2013-05-21 15:36:00,
2013-05-21 11:41:00,81.1,73.6,29.96,SW,230,0.0,2.0,78,0.00,,CLR,0.00,VWS V14.00,2013-05-21 15:41:00,
2013-05-21 11:46:00,81.0,73.5,29.96,SW,230,0.0,2.0,78,0.00,,CLR,0.00,VWS V14.00,2013-05-21 15:46:00,
2013-05-21 11:51:00,81.1,73.6,29.96,SW,230,0.0,2.0,78,0.00,,CLR,0.00,VWS V14.00,2013-05-21 15:51:00,
2013-05-21 11:56:00,81.8,74.3,29.96,SSW,212,1.0,2.0,78,0.00,,CLR,0.00,VWS V14.00,2013-05-21 15:56:00,
2013-05-21 12:01:00,82.4,73.3,29.95,SE,143,0.0,3.0,74,0.00,,CLR,0.00,VWS V14.00,2013-05-21 16:01:00,
2013-05-21 12:06:00,82.7,74.8,29.95,SE,143,0.0,3.0,77,0.00,,CLR,0.00,VWS V14.00,2013-05-21 16:06:00,
2013-05-21 12:11:00,83.1,73.1,29.95,East,79,0.0,3.0,72,0.00,,CLR,0.00,VWS V14.00,2013-05-21 16:11:00,
2013-05-21 12:15:00,83.0,72.6,29.94,East,79,0.0,3.0,71,0.00,,CLR,0.00,VWS V14.00,2013-05-21 16:15:00,
2013-05-21 12:20:00,82.7,72.3,29.94,North,1,0.0,3.0,71,0.00,,CLR,0.00,VWS V14.00,2013-05-21 16:20:00,
2013-05-21 12:25:00,82.8,73.3,29.94,WSW,246,0.0,3.0,73,0.00,,CLR,0.00,VWS V14.00,2013-05-21 16:25:00,
2013-05-21 12:30:00,83.3,74.6,29.94,SE,142,2.0,2.0,75,0.00,,CLR,0.00,VWS V14.00,2013-05-21 16:30:00,
2013-05-21 12:35:00,83.6,72.8,29.94,North,6,2.0,4.0,70,0.00,,CLR,0.00,VWS V14.00,2013-05-21 16:35:00,
2013-05-21 12:40:00,83.4,73.0,29.94,North,6,0.0,4.0,71,0.00,,CLR,0.00,VWS V14.00,2013-05-21 16:40:00,
2013-05-21 12:45:00,83.8,73.8,29.94,North,6,0.0,4.0,72,0.00,,CLR,0.00,VWS V14.00,2013-05-21 16:45:00,
2013-05-21 12:50:00,84.0,73.2,29.94,NNE,27,0.0,4.0,70,0.00,,CLR,0.00,VWS V14.00,2013-05-21 16:50:00,
2013-05-21 12:55:00,83.9,72.7,29.94,NNW,345,0.0,4.0,69,0.00,,CLR,0.00,VWS V14.00,2013-05-21 16:55:00,
2013-05-21 13:00:00,84.2,71.6,29.94,North,0,1.0,3.0,66,0.00,,CLR,0.00,VWS V14.00,2013-05-21 17:00:00,
2013-05-21 13:05:00,84.3,71.7,29.94,NNE,24,0.0,3.0,66,0.00,,CLR,0.00,VWS V14.00,2013-05-21 17:05:00,
2013-05-21 13:10:00,84.7,72.1,29.94,ENE,78,0.0,3.0,66,0.00,,CLR,0.00,VWS V14.00,2013-05-21 17:10:00,
2013-05-21 13:15:00,85.0,72.8,29.94,ESE,104,0.0,3.0,67,0.00,,CLR,0.00,VWS V14.00,2013-05-21 17:15:00,
2013-05-21 13:20:00,85.3,72.2,29.94,ESE,105,0.0,6.0,65,0.00,,CLR,0.00,VWS V14.00,2013-05-21 17:20:00,
2013-05-21 13:25:00,85.7,72.6,29.94,SE,130,0.0,6.0,65,0.00,,CLR,0.00,VWS V14.00,2013-05-21 17:25:00,
2013-05-21 13:30:00,86.0,71.9,29.93,SE,130,1.0,1.0,63,0.00,,CLR,0.00,VWS V14.00,2013-05-21 17:30:00,
2013-05-21 13:35:00,85.8,72.7,29.93,SE,129,0.0,2.0,65,0.00,,CLR,0.00,VWS V14.00,2013-05-21 17:35:00,
2013-05-21 13:40:00,86.2,74.4,29.93,SE,130,0.0,2.0,68,0.00,,CLR,0.00,VWS V14.00,2013-05-21 17:40:00,
2013-05-21 13:45:00,86.2,72.6,29.93,SE,131,1.0,2.0,64,0.00,,CLR,0.00,VWS V14.00,2013-05-21 17:45:00,
2013-05-21 13:50:00,86.1,72.5,29.93,SSW,207,2.0,3.0,64,0.00,,CLR,0.00,VWS V14.00,2013-05-21 17:50:00,
2013-05-21 13:55:00,86.3,73.6,29.93,SSW,198,0.0,3.0,66,0.00,,CLR,0.00,VWS V14.00,2013-05-21 17:55:00,
2013-05-21 14:00:00,86.4,73.2,29.93,North,359,1.0,4.0,65,0.00,,CLR,0.00,VWS V14.00,2013-05-21 18:00:00,
2013-05-21 14:05:00,85.8,72.7,29.93,NNW,333,3.0,4.0,65,0.00,,CLR,0.00,VWS V14.00,2013-05-21 18:05:00,
2013-05-21 14:10:00,85.5,73.3,29.93,North,11,1.0,4.0,67,0.00,,CLR,0.00,VWS V14.00,2013-05-21 18:10:00,
2013-05-21 14:15:00,85.7,73.5,29.92,North,359,0.0,4.0,67,0.00,,CLR,0.00,VWS V14.00,2013-05-21 18:15:00,
2013-05-21 14:20:00,86.2,74.4,29.92,SE,146,0.0,4.0,68,0.00,,CLR,0.00,VWS V14.00,2013-05-21 18:20:00,
2013-05-21 14:25:00,86.6,73.9,29.92,ENE,62,1.0,4.0,66,0.00,,CLR,0.00,VWS V14.00,2013-05-21 18:25:00,
2013-05-21 14:30:00,86.9,74.6,29.91,SE,135,0.0,2.0,67,0.00,,CLR,0.00,VWS V14.00,2013-05-21 18:30:00,
2013-05-21 14:35:00,87.1,73.4,29.91,ESE,110,1.0,5.0,64,0.00,,CLR,0.00,VWS V14.00,2013-05-21 18:35:00,
2013-05-21 14:40:00,86.7,74.0,29.91,North,0,0.0,5.0,66,0.00,,CLR,0.00,VWS V14.00,2013-05-21 18:40:00,
2013-05-21 14:45:00,86.6,73.4,29.90,NE,46,0.0,5.0,65,0.00,,CLR,0.00,VWS V14.00,2013-05-21 18:45:00,
2013-05-21 14:50:00,86.8,73.6,29.90,SSW,211,0.0,5.0,65,0.00,,CLR,0.00,VWS V14.00,2013-05-21 18:50:00,
2013-05-21 14:55:00,87.1,73.4,29.90,ESE,117,0.0,5.0,64,0.00,,CLR,0.00,VWS V14.00,2013-05-21 18:55:00,
2013-05-21 15:00:00,87.1,73.0,29.90,SE,125,0.0,2.0,63,0.00,,CLR,0.00,VWS V14.00,2013-05-21 19:00:00,
2013-05-21 15:05:00,86.8,73.6,29.90,SE,125,1.0,2.0,65,0.00,,CLR,0.00,VWS V14.00,2013-05-21 19:05:00,
2013-05-21 15:10:00,86.3,72.7,29.90,SE,125,0.0,2.0,64,0.00,,CLR,0.00,VWS V14.00,2013-05-21 19:10:00,
2013-05-21 15:15:00,86.1,72.5,29.89,SE,124,0.0,2.0,64,0.00,,CLR,0.00,VWS V14.00,2013-05-21 19:15:00,
2013-05-21 15:21:00,86.3,72.2,29.89,ESE,123,0.0,2.0,63,0.00,,CLR,0.00,VWS V14.00,2013-05-21 19:21:00,
2013-05-21 15:26:00,86.2,71.2,29.89,East,82,0.0,2.0,61,0.00,,CLR,0.00,VWS V14.00,2013-05-21 19:26:00,
2013-05-21 15:31:00,86.1,72.0,29.88,East,82,0.0,1.0,63,0.00,,CLR,0.00,VWS V14.00,2013-05-21 19:31:00,
2013-05-21 15:36:00,86.3,73.6,29.88,East,82,0.0,1.0,66,0.00,,CLR,0.00,VWS V14.00,2013-05-21 19:36:00,
2013-05-21 15:40:00,86.3,72.7,29.88,SSE,167,1.0,2.0,64,0.00,,CLR,0.00,VWS V14.00,2013-05-21 19:40:00,
2013-05-21 15:46:00,86.4,74.2,29.88,ESE,105,2.0,2.0,67,0.00,,CLR,0.00,VWS V14.00,2013-05-21 19:46:00,
2013-05-21 15:51:00,86.3,74.1,29.88,SSE,157,0.0,3.0,67,0.00,,CLR,0.00,VWS V14.00,2013-05-21 19:51:00,
2013-05-21 15:56:00,86.2,72.6,29.88,East,79,0.0,3.0,64,0.00,,CLR,0.00,VWS V14.00,2013-05-21 19:56:00,
2013-05-21 16:01:00,86.0,72.9,29.88,ENE,72,0.0,2.0,65,0.00,,CLR,0.00,VWS V14.00,2013-05-21 20:01:00,
2013-05-21 16:06:00,86.0,72.4,29.88,NE,46,0.0,4.0,64,0.00,,CLR,0.00,VWS V14.00,2013-05-21 20:06:00,
2013-05-21 16:11:00,85.8,74.5,29.88,NE,47,0.0,4.0,69,0.00,,CLR,0.00,VWS V14.00,2013-05-21 20:11:00,
2013-05-21 16:16:00,85.5,72.4,29.87,NE,46,0.0,4.0,65,0.00,,CLR,0.00,VWS V14.00,2013-05-21 20:16:00,
2013-05-21 16:21:00,85.4,73.2,29.87,NE,46,1.0,4.0,67,0.00,,CLR,0.00,VWS V14.00,2013-05-21 20:21:00,
2013-05-21 16:26:00,85.4,74.1,29.87,NE,47,0.0,4.0,69,0.00,,CLR,0.00,VWS V14.00,2013-05-21 20:26:00,
2013-05-21 16:31:00,85.4,71.8,29.87,NE,41,0.0,2.0,64,0.00,,CLR,0.00,VWS V14.00,2013-05-21 20:31:00,
2013-05-21 16:36:00,85.4,71.8,29.87,NE,44,0.0,2.0,64,0.00,,CLR,0.00,VWS V14.00,2013-05-21 20:36:00,
2013-05-21 16:41:00,85.6,73.8,29.87,ENE,66,0.0,4.0,68,0.00,,CLR,0.00,VWS V14.00,2013-05-21 20:41:00,
2013-05-21 16:46:00,85.6,71.1,29.86,ENE,69,0.0,4.0,62,0.00,,CLR,0.00,VWS V14.00,2013-05-21 20:46:00,
2013-05-21 16:51:00,85.6,71.1,29.86,East,84,0.0,4.0,62,0.00,,CLR,0.00,VWS V14.00,2013-05-21 20:51:00,
2013-05-21 16:56:00,85.4,72.8,29.86,East,91,0.0,4.0,66,0.00,,CLR,0.00,VWS V14.00,2013-05-21 20:56:00,
2013-05-21 17:01:00,85.2,72.1,29.87,NNE,29,0.0,0.0,65,0.00,,CLR,0.00,VWS V14.00,2013-05-21 21:01:00,
2013-05-21 17:06:00,85.3,72.2,29.87,SSE,152,0.0,1.0,65,0.00,,CLR,0.00,VWS V14.00,2013-05-21 21:06:00,
2013-05-21 17:11:00,85.4,73.2,29.87,NNW,333,0.0,1.0,67,0.00,,CLR,0.00,VWS V14.00,2013-05-21 21:11:00,
2013-05-21 17:16:00,85.4,72.3,29.87,SE,127,0.0,3.0,65,0.00,,CLR,0.00,VWS V14.00,2013-05-21 21:16:00,
2013-05-21 17:21:00,85.2,71.7,29.87,SE,142,0.0,4.0,64,0.00,,CLR,0.00,VWS V14.00,2013-05-21 21:21:00,
2013-05-21 17:26:00,85.4,73.2,29.87,SE,143,0.0,4.0,67,0.00,,CLR,0.00,VWS V14.00,2013-05-21 21:26:00,
2013-05-21 17:31:00,85.3,73.1,29.86,SE,140,0.0,1.0,67,0.00,,CLR,0.00,VWS V14.00,2013-05-21 21:31:00,
2013-05-21 17:36:00,85.1,72.5,29.86,East,88,1.0,3.0,66,0.00,,CLR,0.00,VWS V14.00,2013-05-21 21:36:00,
2013-05-21 17:41:00,84.7,73.4,29.86,SSW,212,0.0,5.0,69,0.00,,CLR,0.00,VWS V14.00,2013-05-21 21:41:00,
2013-05-21 17:46:00,84.2,72.9,29.86,South,177,1.0,6.0,69,0.00,,CLR,0.00,VWS V14.00,2013-05-21 21:46:00,
2013-05-21 17:51:00,83.6,72.8,29.86,West,273,0.0,6.0,70,0.00,,CLR,0.00,VWS V14.00,2013-05-21 21:51:00,
2013-05-21 17:56:00,83.1,73.1,29.86,SSE,156,1.0,6.0,72,0.00,,CLR,0.00,VWS V14.00,2013-05-21 21:56:00,
2013-05-21 18:01:00,82.6,72.2,29.86,SSE,167,1.0,7.0,71,0.00,,CLR,0.00,VWS V14.00,2013-05-21 22:01:00,
2013-05-21 18:06:00,82.3,72.8,29.86,WSW,239,0.0,7.0,73,0.00,,CLR,0.00,VWS V14.00,2013-05-21 22:06:00,
2013-05-21 18:11:00,81.9,72.0,29.86,SSE,166,0.0,7.0,72,0.00,,CLR,0.00,VWS V14.00,2013-05-21 22:11:00,
2013-05-21 18:16:00,81.6,72.1,29.85,SE,124,0.0,7.0,73,0.00,,CLR,0.00,VWS V14.00,2013-05-21 22:16:00,
2013-05-21 18:21:00,81.2,72.1,29.85,SSW,194,1.0,7.0,74,0.00,,CLR,0.00,VWS V14.00,2013-05-21 22:21:00,
2013-05-21 18:26:00,80.7,71.7,29.85,SE,124,2.0,7.0,74,0.00,,CLR,0.00,VWS V14.00,2013-05-21 22:26:00,
2013-05-21 18:31:00,80.3,71.7,29.85,South,174,1.0,7.0,75,0.00,,CLR,0.00,VWS V14.00,2013-05-21 22:31:00,
2013-05-21 18:36:00,80.1,72.2,29.85,NNE,20,0.0,7.0,77,0.00,,CLR,0.00,VWS V14.00,2013-05-21 22:36:00,
2013-05-21 18:41:00,80.0,71.4,29.85,SSE,165,2.0,7.0,75,0.00,,CLR,0.00,VWS V14.00,2013-05-21 22:41:00,
2013-05-21 18:46:00,79.9,71.3,29.85,East,82,0.0,7.0,75,0.00,,CLR,0.00,VWS V14.00,2013-05-21 22:46:00,
2013-05-21 18:51:00,79.8,71.2,29.85,SE,142,0.0,7.0,75,0.00,,CLR,0.00,VWS V14.00,2013-05-21 22:51:00,
2013-05-21 18:56:00,79.7,71.1,29.85,ESE,115,0.0,7.0,75,0.00,,CLR,0.00,VWS V14.00,2013-05-21 22:56:00,
2013-05-21 19:01:00,79.5,70.5,29.86,ESE,117,0.0,3.0,74,0.00,,CLR,0.00,VWS V14.00,2013-05-21 23:01:00,
2013-05-21 19:06:00,79.2,71.0,29.86,SE,139,0.0,3.0,76,0.00,,CLR,0.00,VWS V14.00,2013-05-21 23:06:00,
2013-05-21 19:11:00,78.9,69.9,29.86,WNW,285,0.0,3.0,74,0.00,,CLR,0.00,VWS V14.00,2013-05-21 23:11:00,
2013-05-21 19:16:00,78.7,70.1,29.86,NW,314,0.0,3.0,75,0.00,,CLR,0.00,VWS V14.00,2013-05-21 23:16:00,
2013-05-21 19:21:00,78.4,70.2,29.86,SSE,163,0.0,3.0,76,0.00,,CLR,0.00,VWS V14.00,2013-05-21 23:21:00,
2013-05-21 19:26:00,78.1,70.3,29.86,SSE,164,0.0,3.0,77,0.00,,CLR,0.00,VWS V14.00,2013-05-21 23:26:00,
2013-05-21 19:31:00,77.7,69.5,29.87,NE,52,0.0,1.0,76,0.00,,CLR,0.00,VWS V14.00,2013-05-21 23:31:00,
2013-05-21 19:36:00,77.5,69.3,29.87,SSE,166,0.0,2.0,76,0.00,,CLR,0.00,VWS V14.00,2013-05-21 23:36:00,
2013-05-21 19:41:00,77.1,69.0,29.87,SSE,166,0.0,2.0,76,0.00,,CLR,0.00,VWS V14.00,2013-05-21 23:41:00,
2013-05-21 19:46:00,76.8,68.7,29.87,SSW,206,1.0,3.0,76,0.00,,CLR,0.00,VWS V14.00,2013-05-21 23:46:00,
2013-05-21 19:51:00,76.2,68.5,29.87,SSW,205,0.0,3.0,77,0.00,,CLR,0.00,VWS V14.00,2013-05-21 23:51:00,
2013-05-21 19:56:00,75.8,68.1,29.87,SSW,205,0.0,3.0,77,0.00,,CLR,0.00,VWS V14.00,2013-05-21 23:56:00,
2013-05-21 20:01:00,75.5,68.2,29.88,SSW,206,0.0,0.0,78,0.00,,CLR,0.00,VWS V14.00,2013-05-22 00:01:00,
2013-05-21 20:06:00,75.3,68.0,29.88,SSW,205,0.0,0.0,78,0.00,,CLR,0.00,VWS V14.00,2013-05-22 00:06:00,
2013-05-21 20:11:00,74.9,67.6,29.88,SSW,206,0.0,0.0,78,0.00,,CLR,0.00,VWS V14.00,2013-05-22 00:11:00,
2013-05-21 20:16:00,74.7,67.8,29.88,SSW,206,0.0,0.0,79,0.00,,CLR,0.00,VWS V14.00,2013-05-22 00:16:00,
2013-05-21 20:21:00,74.4,67.5,29.88,SSW,206,0.0,0.0,79,0.00,,CLR,0.00,VWS V14.00,2013-05-22 00:21:00,
2013-05-21 20:26:00,74.2,67.3,29.88,SSW,205,0.0,0.0,79,0.00,,CLR,0.00,VWS V14.00,2013-05-22 00:26:00,
2013-05-21 20:31:00,73.9,67.3,29.88,SSW,206,0.0,0.0,80,0.00,,CLR,0.00,VWS V14.00,2013-05-22 00:31:00,
2013-05-21 20:36:00,73.7,67.5,29.88,SSW,206,0.0,0.0,81,0.00,,CLR,0.00,VWS V14.00,2013-05-22 00:36:00,
2013-05-21 20:41:00,73.5,67.3,29.88,SSW,206,0.0,1.0,81,0.00,,CLR,0.00,VWS V14.00,2013-05-22 00:41:00,
2013-05-21 20:46:00,73.2,67.4,29.88,SSW,206,0.0,1.0,82,0.00,,CLR,0.00,VWS V14.00,2013-05-22 00:46:00,
2013-05-21 20:51:00,72.9,67.4,29.88,SSW,205,0.0,1.0,83,0.00,,CLR,0.00,VWS V14.00,2013-05-22 00:51:00,
2013-05-21 20:56:00,72.6,67.2,29.88,SSW,205,0.0,1.0,83,0.00,,CLR,0.00,VWS V14.00,2013-05-22 00:56:00,
2013-05-21 21:01:00,72.4,67.3,29.89,SSW,206,0.0,0.0,84,0.00,,CLR,0.00,VWS V14.00,2013-05-22 01:01:00,
2013-05-21 21:06:00,72.2,67.4,29.89,SSW,206,0.0,0.0,85,0.00,,CLR,0.00,VWS V14.00,2013-05-22 01:06:00,
2013-05-21 21:11:00,72.0,67.2,29.89,SSW,206,0.0,0.0,85,0.00,,CLR,0.00,VWS V14.00,2013-05-22 01:11:00,
2013-05-21 21:16:00,71.8,67.4,29.89,SSW,206,0.0,0.0,86,0.00,,CLR,0.00,VWS V14.00,2013-05-22 01:16:00,
2013-05-21 21:21:00,71.7,67.3,29.89,SSW,205,0.0,0.0,86,0.00,,CLR,0.00,VWS V14.00,2013-05-22 01:21:00,
2013-05-21 21:26:00,71.6,67.5,29.89,SSW,205,0.0,0.0,87,0.00,,CLR,0.00,VWS V14.00,2013-05-22 01:26:00,
2013-05-21 21:31:00,71.5,67.4,29.90,SSW,206,0.0,0.0,87,0.00,,CLR,0.00,VWS V14.00,2013-05-22 01:31:00,
2013-05-21 21:36:00,71.5,67.4,29.90,SSW,206,0.0,0.0,87,0.00,,CLR,0.00,VWS V14.00,2013-05-22 01:36:00,
2013-05-21 21:41:00,71.3,67.2,29.90,SSW,205,0.0,0.0,87,0.00,,CLR,0.00,VWS V14.00,2013-05-22 01:41:00,
2013-05-21 21:46:00,71.3,67.2,29.90,SSW,206,0.0,0.0,87,0.00,,CLR,0.00,VWS V14.00,2013-05-22 01:46:00,
2013-05-21 21:51:00,71.2,67.5,29.90,SSW,206,0.0,0.0,88,0.00,,CLR,0.00,VWS V14.00,2013-05-22 01:51:00,
2013-05-21 21:57:00,71.0,67.3,29.90,SSW,206,0.0,0.0,88,0.00,,CLR,0.00,VWS V14.00,2013-05-22 01:57:00,
2013-05-21 22:02:00,70.9,67.2,29.90,SSW,205,0.0,0.0,88,0.00,,CLR,0.00,VWS V14.00,2013-05-22 02:02:00,
2013-05-21 22:07:00,70.8,67.1,29.90,SSW,205,0.0,0.0,88,0.00,,CLR,0.00,VWS V14.00,2013-05-22 02:07:00,
2013-05-21 22:12:00,70.7,67.3,29.90,SSW,206,0.0,0.0,89,0.00,,CLR,0.00,VWS V14.00,2013-05-22 02:12:00,
2013-05-21 22:17:00,70.6,67.2,29.91,SSW,206,0.0,0.0,89,0.00,,CLR,0.00,VWS V14.00,2013-05-22 02:17:00,
2013-05-21 22:21:00,70.5,67.1,29.91,SSW,206,0.0,0.0,89,0.00,,CLR,0.00,VWS V14.00,2013-05-22 02:21:00,
2013-05-21 22:26:00,70.4,67.3,29.91,SSW,206,0.0,0.0,90,0.00,,CLR,0.00,VWS V14.00,2013-05-22 02:26:00,
2013-05-21 22:31:00,70.3,67.2,29.91,SSW,205,0.0,0.0,90,0.00,,CLR,0.00,VWS V14.00,2013-05-22 02:31:00,
2013-05-21 22:36:00,70.3,67.2,29.91,SSW,205,0.0,0.0,90,0.00,,CLR,0.00,VWS V14.00,2013-05-22 02:36:00,
2013-05-21 22:41:00,70.3,67.6,29.91,SSW,206,0.0,0.0,91,0.00,,CLR,0.00,VWS V14.00,2013-05-22 02:41:00,
2013-05-21 22:46:00,70.3,67.6,29.91,SSW,206,0.0,0.0,91,0.00,,CLR,0.00,VWS V14.00,2013-05-22 02:46:00,
2013-05-21 22:51:00,70.2,67.4,29.91,SSW,206,0.0,0.0,91,0.00,,CLR,0.00,VWS V14.00,2013-05-22 02:51:00,
2013-05-21 22:56:00,70.1,67.4,29.91,SSW,205,0.0,0.0,91,0.00,,CLR,0.00,VWS V14.00,2013-05-22 02:56:00,
2013-05-21 23:01:00,70.0,67.3,29.91,SSW,206,0.0,0.0,91,0.00,,CLR,0.00,VWS V14.00,2013-05-22 03:01:00,
2013-05-21 23:06:00,69.8,67.1,29.91,SSW,206,0.0,0.0,91,0.00,,CLR,0.00,VWS V14.00,2013-05-22 03:06:00,
2013-05-21 23:11:00,69.6,66.9,29.91,SSW,205,0.0,0.0,91,0.00,,CLR,0.00,VWS V14.00,2013-05-22 03:11:00,
2013-05-21 23:16:00,69.6,67.2,29.91,SSW,206,0.0,1.0,92,0.00,,CLR,0.00,VWS V14.00,2013-05-22 03:16:00,
2013-05-21 23:21:00,69.5,67.1,29.91,SSW,206,0.0,1.0,92,0.00,,CLR,0.00,VWS V14.00,2013-05-22 03:21:00,
2013-05-21 23:26:00,69.5,67.1,29.91,SSW,206,0.0,1.0,92,0.00,,CLR,0.00,VWS V14.00,2013-05-22 03:26:00,
2013-05-21 23:31:00,69.4,67.0,29.92,SSW,205,0.0,0.0,92,0.00,,CLR,0.00,VWS V14.00,2013-05-22 03:31:00,
2013-05-21 23:36:00,69.2,66.8,29.92,SSW,205,0.0,0.0,92,0.00,,CLR,0.00,VWS V14.00,2013-05-22 03:36:00,
2013-05-21 23:41:00,69.0,66.6,29.92,SSW,206,0.0,0.0,92,0.00,,CLR,0.00,VWS V14.00,2013-05-22 03:41:00,
2013-05-21 23:46:00,68.7,66.3,29.92,SSW,206,0.0,0.0,92,0.00,,CLR,0.00,VWS V14.00,2013-05-22 03:46:00,
2013-05-21 23:51:00,68.6,66.5,29.92,SSW,206,0.0,1.0,93,0.00,,CLR,0.00,VWS V14.00,2013-05-22 03:51:00,
2013-05-21 23:56:00,68.6,66.5,29.92,SSW,205,0.0,1.0,93,0.00,,CLR,0.00,VWS V14.00,2013-05-22 03:56:00,